地図

経路データ

SID SEASON NUMBER BASIN SUBBASIN NAME ISO_TIME NATURE LAT LON WMO_WIND WMO_PRES WMO_AGENCY TRACK_TYPE DIST2LAND LANDFALL IFLAG USA_AGENCY USA_ATCF_ID USA_LAT USA_LON USA_RECORD USA_STATUS USA_WIND USA_PRES USA_SSHS USA_R34_NE USA_R34_SE USA_R34_SW USA_R34_NW USA_R50_NE USA_R50_SE USA_R50_SW USA_R50_NW USA_R64_NE USA_R64_SE USA_R64_SW USA_R64_NW USA_POCI USA_ROCI USA_RMW USA_EYE TOKYO_LAT TOKYO_LON TOKYO_GRADE TOKYO_WIND TOKYO_PRES TOKYO_R50_DIR TOKYO_R50_LONG TOKYO_R50_SHORT TOKYO_R30_DIR TOKYO_R30_LONG TOKYO_R30_SHORT TOKYO_LAND CMA_LAT CMA_LON CMA_CAT CMA_WIND CMA_PRES HKO_LAT HKO_LON HKO_CAT HKO_WIND HKO_PRES NEWDELHI_LAT NEWDELHI_LON NEWDELHI_GRADE NEWDELHI_WIND NEWDELHI_PRES NEWDELHI_CI NEWDELHI_DP NEWDELHI_POCI REUNION_LAT REUNION_LON REUNION_TYPE REUNION_WIND REUNION_PRES REUNION_TNUM REUNION_CI REUNION_RMW REUNION_R34_NE REUNION_R34_SE REUNION_R34_SW REUNION_R34_NW REUNION_R50_NE REUNION_R50_SE REUNION_R50_SW REUNION_R50_NW REUNION_R64_NE REUNION_R64_SE REUNION_R64_SW REUNION_R64_NW BOM_LAT BOM_LON BOM_TYPE BOM_WIND BOM_PRES BOM_TNUM BOM_CI BOM_RMW BOM_R34_NE BOM_R34_SE BOM_R34_SW BOM_R34_NW BOM_R50_NE BOM_R50_SE BOM_R50_SW BOM_R50_NW BOM_R64_NE BOM_R64_SE BOM_R64_SW BOM_R64_NW BOM_ROCI BOM_POCI BOM_EYE BOM_POS_METHOD BOM_PRES_METHOD NADI_LAT NADI_LON NADI_CAT NADI_WIND NADI_PRES WELLINGTON_LAT WELLINGTON_LON WELLINGTON_WIND WELLINGTON_PRES DS824_LAT DS824_LON DS824_STAGE DS824_WIND DS824_PRES TD9636_LAT TD9636_LON TD9636_STAGE TD9636_WIND TD9636_PRES TD9635_LAT TD9635_LON TD9635_WIND TD9635_PRES TD9635_ROCI NEUMANN_LAT NEUMANN_LON NEUMANN_CLASS NEUMANN_WIND NEUMANN_PRES MLC_LAT MLC_LON MLC_CLASS MLC_WIND MLC_PRES USA_GUST BOM_GUST BOM_GUST_PER REUNION_GUST REUNION_GUST_PER USA_SEAHGT USA_SEARAD_NE USA_SEARAD_SE USA_SEARAD_SW USA_SEARAD_NW STORM_SPEED STORM_DIR
1909300N11130 1909 62 WP MM NOT_NAMED 1909-10-26 16:00:00 NR 11.1000 129.900 main 447 382 __________O___ -1 11.1000 129.900 7 18 270
1909300N11130 1909 62 WP MM NOT_NAMED 1909-10-26 18:00:00 NR 11.0968 129.287 main 382 284 __________P___ -1 11.0968 129.287 7 18 270
1909300N11130 1909 62 WP MM NOT_NAMED 1909-10-26 21:00:00 NR 11.0918 128.392 main 284 196 __________P___ -1 11.0918 128.392 7 17 270
1909300N11130 1909 62 WP MM NOT_NAMED 1909-10-27 00:00:00 NR 11.0901 127.557 main 196 109 __________P___ -1 11.0901 127.557 7 15 270
1909300N11130 1909 62 WP MM NOT_NAMED 1909-10-27 03:00:00 NR 11.0957 126.818 main 109 88 __________P___ -1 11.0957 126.818 7 14 271
1909300N11130 1909 62 WP MM NOT_NAMED 1909-10-27 04:00:00 NR 11.1000 126.600 main 88 45 __________O___ -1 11.1000 126.600 3 12 272
1909300N11130 1909 62 WP MM NOT_NAMED 1909-10-27 06:00:00 NR 11.1126 126.209 main 45 0 __________P___ -1 11.1126 126.209 3 11 273
1909300N11130 1909 62 WP MM NOT_NAMED 1909-10-27 09:00:00 NR 11.1386 125.710 main 0 0 __________P___ -1 11.1386 125.710 3 9 273
1909300N11130 1909 62 WP MM NOT_NAMED 1909-10-27 12:00:00 NR 11.1678 125.273 main 0 0 __________P___ -1 11.1678 125.273 3 8 274
1909300N11130 1909 62 WP MM NOT_NAMED 1909-10-27 15:00:00 NR 11.1934 124.848 main 0 0 __________P___ -1 11.1934 124.848 3 8 273
1909300N11130 1909 62 WP MM NOT_NAMED 1909-10-27 16:00:00 NR 11.2000 124.700 main 0 0 __________O___ -1 11.2000 124.700 4 9 271
1909300N11130 1909 62 WP MM NOT_NAMED 1909-10-27 18:00:00 NR 11.2001 124.380 main 0 0 __________P___ -1 11.2001 124.380 4 10 270
1909300N11130 1909 62 WP MM NOT_NAMED 1909-10-27 21:00:00 NR 11.1940 123.887 main 0 0 __________P___ -1 11.1940 123.887 4 10 269
1909300N11130 1909 62 WP MM NOT_NAMED 1909-10-28 00:00:00 NR 11.1888 123.366 main 32 0 __________P___ -1 11.1888 123.366 4 11 270
1909300N11130 1909 62 WP MM NOT_NAMED 1909-10-28 03:00:00 NR 11.1942 122.801 main 0 0 __________P___ -1 11.1942 122.801 4 11 271
1909300N11130 1909 62 WP MM NOT_NAMED 1909-10-28 04:00:00 NR 11.2000 122.600 main 0 0 __________O___ -1 11.2000 122.600 4 12 273
1909300N11130 1909 62 WP MM NOT_NAMED 1909-10-28 06:00:00 NR 11.2246 122.171 main 0 0 __________P___ -1 11.2246 122.171 4 13 274
1909300N11130 1909 62 WP MM NOT_NAMED 1909-10-28 09:00:00 NR 11.2741 121.483 main 64 70 __________P___ -1 11.2741 121.483 4 14 274
1909300N11130 1909 62 WP MM NOT_NAMED 1909-10-28 12:00:00 NR 11.3304 120.764 main 105 45 __________P___ -1 11.3304 120.764 4 14 274
1909300N11130 1909 62 WP MM NOT_NAMED 1909-10-28 15:00:00 NR 11.3842 120.039 main 45 24 __________P___ -1 11.3842 120.039 4 14 274
1909300N11130 1909 62 WP MM NOT_NAMED 1909-10-28 16:00:00 NR 11.4000 119.800 main 24 11 __________O___ -1 11.4000 119.800 4 14 273
1909300N11130 1909 62 WP MM NOT_NAMED 1909-10-28 18:00:00 NR 11.4196 119.329 main 24 24 __________P___ -1 11.4196 119.329 4 14 272
1909300N11130 1909 62 WP MM NOT_NAMED 1909-10-28 21:00:00 NR 11.4428 118.627 main 90 90 __________P___ -1 11.4428 118.627 4 14 272
1909300N11130 1909 62 WP MM NOT_NAMED 1909-10-29 00:00:00 NR 11.4641 117.947 main 166 166 __________P___ -1 11.4641 117.947 4 13 272
1909300N11130 1909 62 WP MM NOT_NAMED 1909-10-29 03:00:00 NR 11.4895 117.304 main 226 226 __________P___ -1 11.4895 117.304 4 12 272
1909300N11130 1909 62 WP MM NOT_NAMED 1909-10-29 04:00:00 NR 11.5000 117.100 main 243 243 __________O___ -1 11.5000 117.100 4 12 273
1909300N11130 1909 62 WP MM NOT_NAMED 1909-10-29 06:00:00 NR 11.5192 116.716 main 277 277 __________P___ -1 11.5192 116.716 4 11 273
1909300N11130 1909 62 WP MM NOT_NAMED 1909-10-29 09:00:00 NR 11.5546 116.177 main 320 326 __________P___ -1 11.5546 116.177 4 10 275
1909300N11130 1909 62 WP MM NOT_NAMED 1909-10-29 12:00:00 NR 11.6034 115.667 main 353 360 __________P___ -1 11.6034 115.667 4 10 277
1909300N11130 1909 62 WP MM NOT_NAMED 1909-10-29 15:00:00 NR 11.6718 115.168 main 399 407 __________P___ -1 11.6718 115.168 4 10 278
1909300N11130 1909 62 WP MM NOT_NAMED 1909-10-29 16:00:00 NR 11.7000 115.000 main 414 414 __________O___ -1 11.7000 115.000 4 10 281
1909300N11130 1909 62 WP MM NOT_NAMED 1909-10-29 18:00:00 NR 11.7686 114.650 main 446 454 __________P___ -1 11.7686 114.650 4 11 283
1909300N11130 1909 62 WP MM NOT_NAMED 1909-10-29 21:00:00 NR 11.8907 114.125 main 501 450 __________P___ -1 11.8907 114.125 4 11 284
1909300N11130 1909 62 WP MM NOT_NAMED 1909-10-30 00:00:00 NR 12.0246 113.600 main 450 393 __________P___ -1 12.0246 113.600 4 11 285
1909300N11130 1909 62 WP MM NOT_NAMED 1909-10-30 03:00:00 NR 12.1579 113.075 main 393 372 __________P___ -1 12.1579 113.075 4 11 284
1909300N11130 1909 62 WP MM NOT_NAMED 1909-10-30 04:00:00 NR 12.2000 112.900 main 372 327 __________O___ -1 12.2000 112.900 4 11 282
1909300N11130 1909 62 WP MM NOT_NAMED 1909-10-30 06:00:00 NR 12.2670 112.539 main 327 272 __________P___ -1 12.2670 112.539 4 11 280
1909300N11130 1909 62 WP MM NOT_NAMED 1909-10-30 09:00:00 NR 12.3613 111.998 main 272 217 __________P___ -1 12.3613 111.998 4 11 280
1909300N11130 1909 62 WP MM NOT_NAMED 1909-10-30 12:00:00 NR 12.4562 111.468 main 217 162 __________P___ -1 12.4562 111.468 4 10 281
1909300N11130 1909 62 WP MM NOT_NAMED 1909-10-30 15:00:00 NR 12.5612 110.962 main 162 141 __________P___ -1 12.5612 110.962 4 10 282
1909300N11130 1909 62 WP MM NOT_NAMED 1909-10-30 16:00:00 NR 12.6000 110.800 main 141 109 __________O___ -1 12.6000 110.800 7 10 285
1909300N11130 1909 62 WP MM NOT_NAMED 1909-10-30 18:00:00 NR 12.6910 110.478 main 109 55 __________P___ -1 12.6910 110.478 7 10 288
1909300N11130 1909 62 WP MM NOT_NAMED 1909-10-30 21:00:00 NR 12.8405 110.020 main 55 15 __________P___ -1 12.8405 110.020 7 9 290
1909300N11130 1909 62 WP MM NOT_NAMED 1909-10-31 00:00:00 NR 12.9969 109.598 main 15 0 __________P___ -1 12.9969 109.598 7 8 292
1909300N11130 1909 62 WP MM NOT_NAMED 1909-10-31 03:00:00 NR 13.1509 109.217 main 0 0 __________P___ -1 13.1509 109.217 7 8 293
1909300N11130 1909 62 WP MM NOT_NAMED 1909-10-31 04:00:00 NR 13.2000 109.100 main 0 0 __________O___ -1 13.2000 109.100 2 7 292
1909300N11130 1909 62 WP MM NOT_NAMED 1909-10-31 06:00:00 NR 13.2861 108.882 main 0 0 __________P___ -1 13.2861 108.882 2 6 293
1909300N11130 1909 62 WP MM NOT_NAMED 1909-10-31 09:00:00 NR 13.4092 108.594 main 0 0 __________P___ -1 13.4092 108.594 2 6 295
1909300N11130 1909 62 WP MM NOT_NAMED 1909-10-31 12:00:00 NR 13.5305 108.334 main 0 0 __________P___ -1 13.5305 108.334 2 6 296
1909300N11130 1909 62 WP MM NOT_NAMED 1909-10-31 15:00:00 NR 13.6561 108.084 main 0 0 __________P___ -1 13.6561 108.084 2 6 298
1909300N11130 1909 62 WP MM NOT_NAMED 1909-10-31 16:00:00 NR 13.7000 108.000 main 0 0 __________O___ -1 13.7000 108.000 2 6 298
1909300N11130 1909 62 WP MM NOT_NAMED 1909-10-31 18:00:00 NR 13.7917 107.827 main 0 0 __________P___ -1 13.7917 107.827 2 6 299
1909300N11130 1909 62 WP MM NOT_NAMED 1909-10-31 21:00:00 NR 13.9376 107.557 main 0 0 __________P___ -1 13.9376 107.557 2 6 299
1909300N11130 1909 62 WP MM NOT_NAMED 1909-11-01 00:00:00 NR 14.0905 107.279 main 0 0 __________P___ -1 14.0905 107.279 2 6 300
1909300N11130 1909 62 WP MM NOT_NAMED 1909-11-01 03:00:00 NR 14.2474 106.995 main 0 0 __________P___ -1 14.2474 106.995 2 6 300
1909300N11130 1909 62 WP MM NOT_NAMED 1909-11-01 04:00:00 NR 14.3000 106.900 main 0 __________O___ -1 14.3000 106.900 7 6 300

デジタル台風データ・検索

IBTrACS Databaseについて

本データベースは、米国NOAAが公開する1842年以降の世界の熱帯低気圧のベストトラックデータアーカイブInternational Best Track Archive for Climate Stewardship (IBTrACS)を、ウェブで閲覧しやすい形式に変換したものです。

最終更新日:2021-11-26